Time;durP1;ratioP1;P1;durP2;ratioP2;P2;SDS_P1;SDS_P2;PMS_P1;PMS_P2;Temp;Humidity;BMP_temperature;BMP_pressure;BME280_temperature;BME280_humidity;BME280_pressure;Samples;Min_cycle;Max_cycle;Signal;HPM_P1;HPM_P2
2024/02/22 00:01:11;;;;;;;13.80;8.03;;;;;;;10.33;56.73;95533.50;5045719;28;20396;-68
2024/02/22 00:03:37;;;;;;;13.53;8.00;;;;;;;10.21;57.23;95528.91;5045576;28;20180;-68
2024/02/22 00:06:05;;;;;;;8.37;7.00;;;;;;;10.30;57.49;95525.81;5046075;28;20178;-67
2024/02/22 00:08:30;;;;;;;12.30;6.60;;;;;;;10.25;57.27;95509.47;5046239;28;20414;-67
2024/02/22 00:10:57;;;;;;;14.07;6.83;;;;;;;10.27;56.91;95504.94;5045692;28;20421;-68
2024/02/22 00:13:23;;;;;;;11.83;6.20;;;;;;;10.29;56.75;95495.25;5046221;28;20201;-67
2024/02/22 00:15:49;;;;;;;9.00;6.73;;;;;;;10.27;57.01;95498.88;5046157;28;20428;-69
2024/02/22 00:18:14;;;;;;;8.20;6.80;;;;;;;10.21;56.90;95489.59;5045923;28;20502;-68
2024/02/22 00:20:40;;;;;;;6.03;5.40;;;;;;;10.12;57.18;95490.09;5045645;28;20210;-68
2024/02/22 00:23:05;;;;;;;7.40;6.03;;;;;;;10.14;56.95;95468.13;5046889;28;20197;-68
2024/02/22 00:25:32;;;;;;;8.80;5.47;;;;;;;10.21;56.79;95465.16;5050570;28;20175;-68
2024/02/22 00:27:57;;;;;;;8.00;4.87;;;;;;;10.17;56.44;95457.44;5045568;28;20174;-68
2024/02/22 00:30:24;;;;;;;7.73;5.00;;;;;;;10.23;56.29;95448.41;5045129;28;21147;-68
2024/02/22 00:32:50;;;;;;;5.53;5.00;;;;;;;10.21;56.30;95442.41;5044990;28;20186;-68
2024/02/22 00:35:16;;;;;;;5.97;5.47;;;;;;;10.24;56.12;95438.75;5045328;28;20427;-70
2024/02/22 00:37:41;;;;;;;6.63;5.90;;;;;;;10.23;56.14;95435.28;5027507;28;20186;-68
2024/02/22 00:40:09;;;;;;;6.17;5.57;;;;;;;10.18;56.35;95429.44;5045505;28;20202;-68
2024/02/22 00:42:35;;;;;;;6.07;5.47;;;;;;;10.24;56.12;95426.47;5045800;28;20265;-67
2024/02/22 00:45:00;;;;;;;9.80;5.60;;;;;;;10.24;56.03;95423.84;5047921;28;20413;-67
2024/02/22 00:47:26;;;;;;;6.47;4.67;;;;;;;10.17;56.26;95422.53;5049054;28;20171;-68
2024/02/22 00:49:52;;;;;;;8.23;6.27;;;;;;;10.05;56.78;95410.13;5048704;28;20195;-67
2024/02/22 00:52:17;;;;;;;7.30;5.33;;;;;;;10.02;57.27;95407.69;5049128;28;20269;-67
2024/02/22 00:54:43;;;;;;;11.70;6.50;;;;;;;10.00;57.45;95405.16;5049496;28;20496;-67
2024/02/22 00:57:09;;;;;;;10.57;6.40;;;;;;;9.94;57.81;95398.50;5048890;28;20190;-67
2024/02/22 00:59:34;;;;;;;7.10;6.10;;;;;;;9.88;58.19;95385.72;5048962;28;20457;-67
2024/02/22 01:02:00;;;;;;;9.07;6.53;;;;;;;9.91;58.58;95379.47;5048541;28;20236;-67
2024/02/22 01:04:26;;;;;;;9.60;6.77;;;;;;;9.92;58.39;95379.38;5049203;28;20203;-67
2024/02/22 01:06:56;;;;;;;8.27;6.40;;;;;;;9.88;58.31;95383.13;5048712;28;20175;-67
2024/02/22 01:09:22;;;;;;;9.30;6.73;;;;;;;9.80;58.76;95368.75;5048071;28;20843;-68
2024/02/22 01:11:47;;;;;;;7.33;6.53;;;;;;;9.69;59.14;95372.00;5048460;28;20420;-67
2024/02/22 01:14:14;;;;;;;8.53;6.10;;;;;;;9.90;58.08;95360.28;5048429;28;20266;-68
2024/02/22 01:16:40;;;;;;;7.40;6.57;;;;;;;9.92;58.22;95362.81;5048247;28;20205;-69
2024/02/22 01:19:05;;;;;;;8.43;7.50;;;;;;;9.99;57.81;95355.44;5048064;28;20807;-70
2024/02/22 01:21:30;;;;;;;6.60;5.53;;;;;;;9.89;58.03;95348.09;5048260;28;20206;-68
2024/02/22 01:23:56;;;;;;;7.93;6.80;;;;;;;9.98;57.95;95343.28;5048727;28;20167;-69
2024/02/22 01:26:22;;;;;;;7.97;6.50;;;;;;;10.09;57.88;95340.88;5048727;28;20171;-69
2024/02/22 01:28:50;;;;;;;6.60;5.90;;;;;;;9.90;58.61;95328.00;5048725;28;20170;-69
2024/02/22 01:31:16;;;;;;;6.87;6.13;;;;;;;9.90;58.59;95333.25;5048801;28;20653;-68
2024/02/22 01:33:43;;;;;;;8.80;7.90;;;;;;;9.93;58.43;95318.16;5030603;28;20441;-69
2024/02/22 01:36:08;;;;;;;8.30;6.10;;;;;;;9.88;58.61;95324.63;5048572;28;20564;-68
2024/02/22 01:38:35;;;;;;;6.20;5.40;;;;;;;9.95;58.18;95328.56;5048767;28;20409;-68
2024/02/22 01:41:01;;;;;;;10.33;6.73;;;;;;;9.91;58.41;95313.97;5048837;28;20199;-69
2024/02/22 01:43:27;;;;;;;12.67;6.30;;;;;;;9.98;58.36;95320.53;5048426;28;20958;-68
2024/02/22 01:45:52;;;;;;;7.40;5.50;;;;;;;10.00;58.36;95325.69;5048304;28;20181;-68
2024/02/22 01:48:18;;;;;;;7.23;6.53;;;;;;;9.98;58.09;95323.16;5048155;28;20167;-69
2024/02/22 01:50:43;;;;;;;7.53;5.57;;;;;;;9.96;58.13;95312.75;5048033;28;20642;-68
2024/02/22 01:53:11;;;;;;;5.97;5.43;;;;;;;9.89;57.70;95307.97;5048098;28;20174;-70
2024/02/22 01:55:36;;;;;;;7.57;4.93;;;;;;;9.92;57.90;95300.78;5046331;28;20175;-68
2024/02/22 01:58:02;;;;;;;5.17;4.67;;;;;;;9.92;57.45;95292.91;5047849;28;20420;-68
2024/02/22 02:00:28;;;;;;;6.97;5.33;;;;;;;9.98;57.22;95275.13;5047684;28;20272;-69
2024/02/22 02:02:53;;;;;;;5.30;4.80;;;;;;;9.92;57.58;95285.06;5047753;28;20175;-69
2024/02/22 02:05:19;;;;;;;5.30;4.70;;;;;;;9.94;57.32;95285.81;5047346;28;20183;-68
2024/02/22 02:07:45;;;;;;;5.40;4.90;;;;;;;10.01;56.49;95267.06;5048092;28;20183;-69
2024/02/22 02:10:11;;;;;;;7.67;4.80;;;;;;;10.04;56.54;95261.63;5047685;28;20596;-68
2024/02/22 02:12:37;;;;;;;4.97;4.47;;;;;;;10.16;55.96;95260.94;5047353;28;20463;-68
2024/02/22 02:15:04;;;;;;;5.97;3.73;;;;;;;10.07;55.97;95251.84;5046876;28;20256;-69
2024/02/22 02:17:29;;;;;;;8.03;4.63;;;;;;;10.08;56.15;95243.03;5047658;28;20819;-68
2024/02/22 02:19:56;;;;;;;9.23;4.60;;;;;;;9.98;56.49;95236.66;5047387;28;20529;-69
2024/02/22 02:22:48;;;;;;;5.43;4.87;;;;;;;10.01;56.14;95243.50;5047454;28;20224;-69
2024/02/22 02:25:14;;;;;;;4.60;4.20;;;;;;;10.06;55.84;95230.94;5047752;28;20397;-68
2024/02/22 02:27:40;;;;;;;5.90;5.30;;;;;;;9.96;56.29;95223.63;5048463;28;20405;-68
2024/02/22 02:30:06;;;;;;;7.40;5.87;;;;;;;9.85;57.04;95230.44;5047462;28;20193;-71
2024/02/22 02:32:31;;;;;;;7.50;4.90;;;;;;;9.84;57.10;95215.69;5047302;28;20170;-69
2024/02/22 02:34:56;;;;;;;6.30;4.63;;;;;;;9.97;57.24;95214.03;5047149;28;20240;-69
2024/02/22 02:37:22;;;;;;;6.87;4.90;;;;;;;9.83;57.47;95214.00;5047127;28;20633;-69
2024/02/22 02:39:47;;;;;;;5.80;5.27;;;;;;;9.90;57.22;95215.31;5046936;28;20199;-69
2024/02/22 02:42:13;;;;;;;8.30;5.63;;;;;;;9.91;57.22;95209.97;5046728;28;20171;-69
2024/02/22 02:44:39;;;;;;;5.60;4.60;;;;;;;9.92;56.69;95211.66;5046283;28;20182;-69
2024/02/22 02:47:07;;;;;;;4.40;4.00;;;;;;;9.98;56.58;95214.84;5046394;28;20417;-71
2024/02/22 02:49:33;;;;;;;5.07;4.57;;;;;;;9.88;56.88;95210.16;5046319;28;20565;-68
2024/02/22 02:51:59;;;;;;;4.97;4.43;;;;;;;9.95;56.80;95208.84;5050992;28;20474;-71
2024/02/22 02:54:24;;;;;;;6.33;4.67;;;;;;;9.97;56.54;95216.63;5047686;28;20549;-68
2024/02/22 02:56:49;;;;;;;19.60;5.10;;;;;;;9.98;56.80;95209.63;5046528;28;20189;-69
2024/02/22 02:59:16;;;;;;;5.13;4.63;;;;;;;10.02;56.49;95209.34;5046537;28;20218;-67
2024/02/22 03:01:49;;;;;;;5.47;4.67;;;;;;;10.04;56.69;95202.22;5046376;28;20198;-69
2024/02/22 03:04:17;;;;;;;5.57;4.83;;;;;;;9.96;56.69;95196.59;5046778;28;20413;-69
2024/02/22 03:06:42;;;;;;;5.80;4.70;;;;;;;9.91;56.91;95194.25;5046731;28;20417;-68
2024/02/22 03:09:08;;;;;;;5.80;5.30;;;;;;;9.95;56.80;95185.28;5049125;28;20484;-69
2024/02/22 03:11:33;;;;;;;5.30;4.80;;;;;;;9.94;56.99;95173.13;5046350;28;20171;-68
2024/02/22 03:13:59;;;;;;;7.13;5.50;;;;;;;10.03;56.96;95176.09;5046572;28;20175;-69
2024/02/22 03:16:24;;;;;;;6.33;5.30;;;;;;;10.01;56.39;95164.88;5046393;28;20174;-70
2024/02/22 03:18:51;;;;;;;4.90;4.03;;;;;;;9.89;56.88;95154.19;5046130;28;20228;-68
2024/02/22 03:21:17;;;;;;;5.43;4.93;;;;;;;10.00;57.00;95155.34;5045946;28;20214;-68
2024/02/22 03:23:43;;;;;;;5.87;5.20;;;;;;;9.97;56.70;95156.38;5046558;28;20413;-69
2024/02/22 03:26:09;;;;;;;4.93;4.40;;;;;;;10.04;56.78;95159.41;5046182;28;20935;-68
2024/02/22 03:28:34;;;;;;;6.73;5.00;;;;;;;9.96;57.18;95149.41;5046235;28;20175;-68
2024/02/22 03:31:00;;;;;;;6.00;4.87;;;;;;;9.99;57.20;95151.00;5045965;28;20187;-68
2024/02/22 03:33:27;;;;;;;7.17;4.53;;;;;;;9.93;57.16;95139.13;5046266;28;20167;-68
2024/02/22 03:35:53;;;;;;;5.70;4.70;;;;;;;9.95;56.97;95137.28;5045806;28;20241;-68
2024/02/22 03:38:19;;;;;;;6.07;4.87;;;;;;;9.93;56.99;95132.09;5045954;28;21112;-68
2024/02/22 03:40:45;;;;;;;6.03;5.23;;;;;;;9.99;57.32;95137.91;5027162;28;20211;-69
2024/02/22 03:43:10;;;;;;;6.37;4.43;;;;;;;9.98;57.38;95133.63;5046221;28;20217;-69
2024/02/22 03:45:36;;;;;;;5.47;4.87;;;;;;;9.98;57.48;95137.06;5046024;28;20236;-68
2024/02/22 03:48:01;;;;;;;10.07;4.87;;;;;;;9.88;57.74;95135.97;5045786;28;20171;-68
2024/02/22 03:50:27;;;;;;;6.70;4.80;;;;;;;9.96;57.96;95133.69;5045580;28;20245;-68
2024/02/22 03:52:54;;;;;;;7.00;6.30;;;;;;;9.91;58.69;95131.34;5027840;28;20668;-68
2024/02/22 03:55:20;;;;;;;6.60;4.53;;;;;;;9.95;58.99;95132.03;5055594;28;20420;-69
2024/02/22 03:57:46;;;;;;;5.00;4.57;;;;;;;9.99;58.96;95127.41;5061985;28;20414;-68
2024/02/22 04:00:12;;;;;;;6.03;5.20;;;;;;;9.86;59.68;95127.34;5060729;28;20297;-69
2024/02/22 04:02:38;;;;;;;5.83;4.97;;;;;;;9.85;59.79;95118.66;5060327;28;20405;-68
2024/02/22 04:05:04;;;;;;;6.47;4.60;;;;;;;9.90;59.52;95127.06;5054122;28;20488;-67
2024/02/22 04:07:29;;;;;;;6.90;4.93;;;;;;;9.89;60.47;95124.53;5046143;28;20174;-69
2024/02/22 04:09:55;;;;;;;6.20;4.73;;;;;;;9.86;60.40;95122.94;5045790;28;20425;-67
2024/02/22 04:12:21;;;;;;;6.50;5.43;;;;;;;9.84;60.66;95122.19;5046034;28;20166;-68
2024/02/22 04:14:46;;;;;;;5.37;4.03;;;;;;;9.85;61.28;95121.28;5046636;28;20641;-68
2024/02/22 04:17:12;;;;;;;5.13;4.40;;;;;;;9.94;61.31;95110.22;5045862;28;20708;-68
2024/02/22 04:19:37;;;;;;;6.90;3.80;;;;;;;9.95;61.92;95113.69;5047591;28;20209;-68
2024/02/22 04:22:03;;;;;;;6.40;4.43;;;;;;;9.98;62.59;95108.25;5049749;28;20174;-69
2024/02/22 04:24:28;;;;;;;5.57;3.57;;;;;;;9.93;63.25;95116.38;5049755;28;20171;-68
2024/02/22 04:26:54;;;;;;;5.90;4.13;;;;;;;10.12;63.04;95112.63;5049823;28;20167;-68
2024/02/22 04:29:20;;;;;;;5.57;3.47;;;;;;;9.93;64.49;95111.16;5049441;28;20708;-68
2024/02/22 04:31:46;;;;;;;3.53;3.17;;;;;;;10.05;64.56;95108.69;5049707;28;20270;-69
2024/02/22 04:34:12;;;;;;;8.10;3.00;;;;;;;9.95;65.53;95097.97;5049598;28;21241;-69
2024/02/22 04:36:40;;;;;;;5.10;3.43;;;;;;;9.97;65.46;95096.09;5049887;28;20432;-69
2024/02/22 04:39:06;;;;;;;6.00;3.40;;;;;;;9.91;66.84;95096.47;5049511;28;20193;-69
2024/02/22 04:41:32;;;;;;;4.20;2.93;;;;;;;9.95;66.86;95084.84;5049191;28;20456;-68
2024/02/22 04:43:58;;;;;;;3.97;2.90;;;;;;;10.05;66.86;95088.56;5049459;28;20418;-69
2024/02/22 04:46:23;;;;;;;5.17;2.43;;;;;;;10.09;67.19;95091.84;5049301;28;20405;-69
2024/02/22 04:48:49;;;;;;;3.23;2.90;;;;;;;10.02;67.92;95086.16;5049425;28;20173;-67
2024/02/22 04:51:14;;;;;;;5.37;3.23;;;;;;;9.98;67.94;95086.44;5049156;28;20174;-69
2024/02/22 04:53:40;;;;;;;3.97;2.77;;;;;;;10.00;68.09;95082.78;5048836;28;20660;-69
2024/02/22 04:56:06;;;;;;;3.17;2.50;;;;;;;10.06;68.09;95074.53;5049172;28;20282;-69
2024/02/22 04:58:32;;;;;;;2.47;2.27;;;;;;;9.91;68.94;95078.94;5049231;28;20182;-68
2024/02/22 05:00:57;;;;;;;3.37;2.93;;;;;;;9.95;69.22;95082.22;5048745;28;20256;-68
2024/02/22 05:03:23;;;;;;;4.00;3.10;;;;;;;9.93;69.52;95074.47;5048809;28;20179;-69
2024/02/22 05:05:49;;;;;;;3.40;3.10;;;;;;;9.98;69.33;95073.34;5049156;28;20257;-69
2024/02/22 05:08:14;;;;;;;3.30;3.00;;;;;;;10.06;69.38;95068.44;5049005;28;20500;-68
2024/02/22 05:10:40;;;;;;;4.03;2.80;;;;;;;9.92;70.07;95062.31;5048932;28;20183;-68
2024/02/22 05:13:05;;;;;;;3.77;3.20;;;;;;;9.96;70.36;95057.69;5049237;28;20213;-68
2024/02/22 05:15:31;;;;;;;6.20;3.00;;;;;;;9.94;70.68;95060.44;5049375;28;20183;-68
2024/02/22 05:17:56;;;;;;;4.77;2.50;;;;;;;9.93;70.83;95058.72;5048978;28;20224;-68
2024/02/22 05:20:22;;;;;;;3.70;2.43;;;;;;;9.85;71.73;95047.03;5048884;28;20210;-68
2024/02/22 05:22:47;;;;;;;3.47;2.30;;;;;;;9.77;72.06;95044.91;5048624;28;20836;-68
2024/02/22 05:25:13;;;;;;;6.50;2.53;;;;;;;9.82;71.79;95039.38;5048817;28;20177;-69
2024/02/22 05:27:38;;;;;;;2.37;2.13;;;;;;;9.88;71.62;95025.91;5048713;28;20228;-69
2024/02/22 05:30:04;;;;;;;2.87;2.30;;;;;;;9.96;71.37;95026.25;5048880;28;20191;-69
2024/02/22 05:32:30;;;;;;;6.03;3.20;;;;;;;9.74;72.30;95030.22;5048712;28;20899;-69
2024/02/22 05:34:56;;;;;;;3.17;2.07;;;;;;;9.83;72.23;95034.06;5049016;28;20186;-68
2024/02/22 05:37:21;;;;;;;5.07;2.30;;;;;;;9.89;71.67;95028.41;5049839;28;20478;-68
2024/02/22 05:39:47;;;;;;;4.33;2.57;;;;;;;9.69;72.60;95032.28;5054767;28;20608;-68
2024/02/22 05:42:12;;;;;;;5.70;2.87;;;;;;;9.75;72.13;95036.31;5059750;28;20274;-68
2024/02/22 05:44:37;;;;;;;4.33;2.27;;;;;;;9.80;72.04;95029.00;5078676;28;20769;-70
2024/02/22 05:47:03;;;;;;;2.90;2.60;;;;;;;9.78;71.75;95024.78;5075557;28;20174;-69
2024/02/22 05:49:28;;;;;;;3.07;2.67;;;;;;;9.82;72.11;95016.63;5070437;28;20201;-68
2024/02/22 05:51:54;;;;;;;2.97;2.63;;;;;;;9.70;72.73;95009.56;5074064;28;20182;-68
2024/02/22 05:54:22;;;;;;;3.00;2.30;;;;;;;9.77;72.35;95008.22;5069140;28;20257;-69
2024/02/22 05:56:48;;;;;;;5.37;2.90;;;;;;;9.76;72.67;95011.81;5069269;28;20183;-68
2024/02/22 05:59:13;;;;;;;2.93;2.63;;;;;;;9.70;72.79;95002.53;5068176;28;20424;-69
2024/02/22 06:01:38;;;;;;;3.23;2.60;;;;;;;9.62;73.01;95004.81;5065902;28;20545;-70
2024/02/22 06:04:04;;;;;;;2.60;2.30;;;;;;;9.67;73.27;95001.91;5040848;28;20191;-69
2024/02/22 06:06:29;;;;;;;14.00;3.40;;;;;;;9.77;73.03;94995.13;5047994;28;20182;-69
2024/02/22 06:08:55;;;;;;;8.80;3.40;;;;;;;9.84;72.62;94993.81;5052931;28;20179;-68
2024/02/22 06:11:20;;;;;;;2.30;1.90;;;;;;;9.82;73.16;94997.47;5054837;28;20297;-69
2024/02/22 06:13:46;;;;;;;2.53;2.33;;;;;;;9.62;74.10;94986.47;5050887;28;20175;-68
2024/02/22 06:16:11;;;;;;;4.20;2.17;;;;;;;9.65;74.41;94988.06;5058206;28;20203;-68
2024/02/22 06:18:37;;;;;;;3.63;2.53;;;;;;;9.81;73.81;94980.06;5024953;28;20278;-68
2024/02/22 06:21:02;;;;;;;4.30;2.17;;;;;;;9.57;74.65;94985.94;5042600;28;20272;-69
2024/02/22 06:23:28;;;;;;;3.97;2.90;;;;;;;9.68;74.18;94980.81;5044945;28;20193;-68
2024/02/22 06:25:56;;;;;;;2.33;2.10;;;;;;;9.70;74.46;94980.75;5037363;28;20187;-68
2024/02/22 06:28:21;;;;;;;4.80;2.37;;;;;;;9.74;74.36;94977.00;5035376;28;20181;-68
2024/02/22 06:30:47;;;;;;;3.20;2.43;;;;;;;9.63;75.28;94979.44;5035581;28;20450;-67
2024/02/22 06:33:12;;;;;;;2.30;2.00;;;;;;;9.70;74.75;94978.13;5039923;28;20197;-69
2024/02/22 06:35:38;;;;;;;5.00;1.90;;;;;;;9.81;74.51;94985.31;5043285;28;20194;-69
2024/02/22 06:38:03;;;;;;;3.03;2.00;;;;;;;9.72;74.96;94978.88;5040562;28;20186;-68
2024/02/22 06:40:29;;;;;;;2.27;1.80;;;;;;;9.71;74.78;94977.19;5045625;28;20210;-67
2024/02/22 06:42:54;;;;;;;3.67;2.53;;;;;;;9.78;74.96;94973.25;5061630;28;20190;-69
2024/02/22 06:45:23;;;;;;;2.53;2.00;;;;;;;9.69;74.96;94979.91;5041631;28;20289;-68
2024/02/22 06:47:52;;;;;;;3.10;1.90;;;;;;;9.71;74.78;94977.19;5038772;28;20171;-68
2024/02/22 06:50:17;;;;;;;2.30;2.10;;;;;;;9.85;74.34;94979.78;5041654;28;20449;-68
2024/02/22 06:52:43;;;;;;;3.03;2.40;;;;;;;9.70;75.48;94972.88;5041384;28;20429;-68
2024/02/22 06:55:09;;;;;;;3.00;2.13;;;;;;;9.74;74.87;94967.34;5038281;28;20534;-69
2024/02/22 06:57:38;;;;;;;4.33;2.20;;;;;;;9.71;74.87;94971.97;5039519;28;20266;-69
2024/02/22 07:00:04;;;;;;;3.57;2.63;;;;;;;9.77;74.59;94961.06;5037467;28;20495;-70
2024/02/22 07:02:30;;;;;;;4.33;2.07;;;;;;;9.81;75.04;94966.97;5036522;28;20421;-68
2024/02/22 07:04:55;;;;;;;3.87;2.23;;;;;;;9.72;75.42;94952.69;5039988;28;20428;-67
2024/02/22 07:07:21;;;;;;;4.17;2.50;;;;;;;9.81;74.89;94959.94;5033762;28;20183;-69
2024/02/22 07:09:47;;;;;;;3.50;2.50;;;;;;;9.80;74.38;94960.03;5045288;28;20194;-69
2024/02/22 07:12:12;;;;;;;7.40;3.00;;;;;;;9.70;74.61;94951.94;5036911;28;20229;-68
2024/02/22 07:14:38;;;;;;;7.30;2.43;;;;;;;9.68;75.15;94949.41;5039548;28;20851;-69
2024/02/22 07:17:03;;;;;;;4.00;2.17;;;;;;;9.70;75.15;94944.91;5044264;28;20186;-69
2024/02/22 07:19:29;;;;;;;2.23;2.03;;;;;;;9.84;74.36;94946.66;5043975;28;20194;-68
2024/02/22 07:21:54;;;;;;;2.30;2.10;;;;;;;9.68;75.41;94936.31;5041634;28;20175;-70
2024/02/22 07:24:20;;;;;;;2.80;1.97;;;;;;;9.77;75.34;94944.53;5041052;28;20185;-69
2024/02/22 07:26:46;;;;;;;2.20;1.93;;;;;;;9.71;75.47;94941.38;5041152;28;20712;-70
2024/02/22 07:29:11;;;;;;;6.20;2.00;;;;;;;9.82;74.62;94943.28;5042913;28;20360;-69
2024/02/22 07:31:37;;;;;;;2.57;2.10;;;;;;;9.80;75.00;94944.31;5037910;28;20167;-68
2024/02/22 07:34:02;;;;;;;8.83;1.80;;;;;;;9.71;75.33;94935.28;5042588;28;20186;-69
2024/02/22 07:36:28;;;;;;;1.97;1.70;;;;;;;9.78;75.22;94941.81;5062573;28;20181;-70
2024/02/22 07:38:53;;;;;;;3.30;2.00;;;;;;;9.73;75.38;94939.50;5037677;28;20665;-69
2024/02/22 07:41:19;;;;;;;4.73;2.00;;;;;;;9.78;74.94;94941.81;5039862;28;20195;-70
2024/02/22 07:43:46;;;;;;;4.63;2.20;;;;;;;9.68;75.48;94936.31;5043247;28;20260;-69
2024/02/22 07:46:12;;;;;;;3.90;2.10;;;;;;;9.75;75.50;94931.50;5043795;28;20231;-69
2024/02/22 07:48:41;;;;;;;3.47;2.00;;;;;;;9.72;75.38;94929.94;5033978;28;20537;-68
2024/02/22 07:51:07;;;;;;;5.87;2.10;;;;;;;9.71;75.89;94930.88;5039667;28;20446;-69
2024/02/22 07:53:34;;;;;;;2.40;1.80;;;;;;;9.70;75.70;94929.19;5032981;28;21099;-69
2024/02/22 07:56:04;;;;;;;2.10;1.70;;;;;;;9.63;75.91;94933.13;5033434;28;20430;-68
2024/02/22 07:58:46;;;;;;;6.13;2.13;;;;;;;9.67;76.36;94931.19;5038025;28;20945;-69
2024/02/22 08:01:12;;;;;;;5.53;2.40;;;;;;;9.70;76.04;94923.13;5034720;28;21096;-70
2024/02/22 08:03:37;;;;;;;1.80;1.43;;;;;;;9.80;75.73;94934.69;5043441;28;20457;-69
2024/02/22 08:06:03;;;;;;;3.27;2.27;;;;;;;9.73;76.16;94921.16;5041947;28;20566;-69
2024/02/22 08:08:29;;;;;;;3.50;1.57;;;;;;;9.67;76.58;94915.47;5038047;28;20183;-70
2024/02/22 08:10:55;;;;;;;3.17;2.10;;;;;;;9.70;76.32;94918.72;5041393;28;20201;-69
2024/02/22 08:13:20;;;;;;;2.47;2.00;;;;;;;9.83;76.21;94920.56;5043469;28;20913;-68
2024/02/22 08:15:46;;;;;;;2.13;2.00;;;;;;;9.80;76.00;94912.88;5043435;28;20543;-69
2024/02/22 08:18:11;;;;;;;5.00;2.03;;;;;;;9.73;76.23;94912.44;5043440;28;20208;-68
2024/02/22 08:20:37;;;;;;;2.30;1.60;;;;;;;9.79;76.26;94909.44;5042707;28;20213;-68
2024/02/22 08:23:08;;;;;;;4.37;2.07;;;;;;;9.81;76.56;94904.94;5039818;28;20182;-69
2024/02/22 08:25:35;;;;;;;6.30;1.87;;;;;;;9.90;76.03;94914.81;5039486;28;20284;-67
2024/02/22 08:28:00;;;;;;;4.00;2.87;;;;;;;9.87;76.41;94904.50;5033065;28;20430;-69
2024/02/22 08:30:26;;;;;;;4.60;2.07;;;;;;;9.88;76.09;94906.22;5041348;28;20452;-68
2024/02/22 08:32:51;;;;;;;6.97;2.30;;;;;;;9.74;77.22;94901.03;5039950;28;20704;-68
2024/02/22 08:35:16;;;;;;;5.03;2.13;;;;;;;9.74;77.15;94898.41;5040909;28;20175;-68
2024/02/22 08:37:42;;;;;;;2.47;1.80;;;;;;;9.95;75.77;94906.66;5046573;28;20183;-68
2024/02/22 08:40:08;;;;;;;4.03;1.90;;;;;;;9.91;76.53;94892.91;5052962;28;20289;-68
2024/02/22 08:42:33;;;;;;;3.00;1.93;;;;;;;9.94;76.09;94899.72;5031066;28;20195;-68
2024/02/22 08:44:59;;;;;;;1.60;1.50;;;;;;;9.84;76.62;94889.00;5034187;28;20290;-68
2024/02/22 08:47:24;;;;;;;2.50;1.70;;;;;;;9.84;76.46;94899.47;5034370;28;20183;-70
2024/02/22 08:49:50;;;;;;;2.40;2.03;;;;;;;9.85;76.40;94887.22;5038748;28;20277;-69
2024/02/22 08:52:15;;;;;;;3.00;2.07;;;;;;;9.81;77.35;94889.22;5038172;28;20178;-69
2024/02/22 08:54:41;;;;;;;5.50;2.00;;;;;;;9.80;76.93;94887.50;5038104;28;20366;-69
2024/02/22 08:57:06;;;;;;;3.50;2.50;;;;;;;9.94;76.12;94879.63;5037219;28;20639;-69
2024/02/22 08:59:31;;;;;;;3.80;1.90;;;;;;;9.78;77.27;94883.31;5039991;28;20222;-68
2024/02/22 09:01:57;;;;;;;4.90;2.00;;;;;;;9.84;76.78;94872.44;5043157;28;20194;-68
2024/02/22 09:04:26;;;;;;;3.00;2.20;;;;;;;9.78;77.18;94860.59;5044995;28;20190;-68
2024/02/22 09:06:52;;;;;;;2.20;2.00;;;;;;;9.82;77.18;94854.19;5044564;28;20478;-71
2024/02/22 09:09:17;;;;;;;2.63;2.10;;;;;;;9.91;76.14;94848.34;5045678;28;20456;-69
2024/02/22 09:11:43;;;;;;;2.10;1.77;;;;;;;10.02;75.99;94838.97;5036487;28;20686;-67
2024/02/22 09:14:08;;;;;;;3.93;2.00;;;;;;;10.03;75.78;94846.72;5043109;28;20186;-68
2024/02/22 09:16:34;;;;;;;3.40;2.00;;;;;;;10.10;75.37;94844.53;5042063;28;20199;-68
2024/02/22 09:18:59;;;;;;;2.07;1.80;;;;;;;10.12;75.87;94837.41;5039894;28;20559;-67
2024/02/22 09:21:24;;;;;;;4.57;2.00;;;;;;;10.24;74.80;94840.97;5043067;28;20207;-69
2024/02/22 09:23:50;;;;;;;5.03;1.93;;;;;;;10.10;75.39;94839.28;5040805;28;20182;-68
2024/02/22 09:26:15;;;;;;;3.00;1.50;;;;;;;10.10;75.56;94826.16;5041344;28;20251;-68
2024/02/22 09:28:41;;;;;;;1.80;1.63;;;;;;;10.07;75.49;94816.75;5042581;28;20214;-67
2024/02/22 09:31:07;;;;;;;4.63;1.90;;;;;;;10.15;74.95;94829.31;5042692;28;20937;-69
2024/02/22 09:33:32;;;;;;;3.73;3.20;;;;;;;10.10;75.19;94823.56;5039825;28;20209;-67
2024/02/22 09:35:58;;;;;;;3.13;1.90;;;;;;;10.08;75.41;94821.03;5044458;28;20441;-70
2024/02/22 09:38:23;;;;;;;4.50;2.37;;;;;;;10.08;75.84;94809.72;5048251;28;20249;-68
2024/02/22 09:40:49;;;;;;;2.73;1.73;;;;;;;10.07;75.45;94805.41;5048017;28;20585;-68
2024/02/22 09:43:14;;;;;;;3.20;1.70;;;;;;;10.22;74.68;94806.16;5048109;28;20185;-69
2024/02/22 09:45:41;;;;;;;2.33;2.13;;;;;;;10.16;74.78;94799.56;5047764;28;20600;-70
2024/02/22 09:48:06;;;;;;;2.97;1.90;;;;;;;10.15;75.30;94803.94;5047957;28;20175;-68
2024/02/22 09:50:33;;;;;;;2.73;2.20;;;;;;;10.12;75.10;94798.91;5048042;28;20483;-70
2024/02/22 09:52:58;;;;;;;2.33;1.50;;;;;;;10.14;74.67;94797.03;5047795;28;20191;-68
2024/02/22 09:55:24;;;;;;;4.40;1.80;;;;;;;10.17;74.58;94799.44;5047775;28;20410;-68
2024/02/22 09:57:51;;;;;;;2.23;1.80;;;;;;;10.06;75.39;94794.09;5047534;28;20667;-68
2024/02/22 10:00:18;;;;;;;2.30;1.90;;;;;;;10.05;75.63;94796.81;5047780;28;20216;-69
2024/02/22 10:02:47;;;;;;;3.00;2.13;;;;;;;10.07;75.44;94795.78;5048140;28;20422;-68
2024/02/22 10:05:13;;;;;;;2.77;2.37;;;;;;;10.15;74.73;94793.44;5048288;28;21113;-68
2024/02/22 10:07:40;;;;;;;3.00;2.07;;;;;;;10.17;75.15;94783.72;5048009;28;20413;-70
2024/02/22 10:10:06;;;;;;;2.00;1.67;;;;;;;10.17;74.85;94785.50;5047593;28;20211;-67
2024/02/22 10:12:32;;;;;;;2.07;1.87;;;;;;;10.11;75.18;94780.66;5047757;28;20473;-68
2024/02/22 10:15:05;;;;;;;3.27;2.10;;;;;;;10.23;74.84;94781.59;5047522;28;20930;-68
2024/02/22 10:17:30;;;;;;;2.40;1.97;;;;;;;10.27;74.66;94775.22;5046572;28;20500;-69
2024/02/22 10:19:56;;;;;;;2.00;1.80;;;;;;;10.35;74.15;94775.56;5046758;28;20481;-67
2024/02/22 10:22:26;;;;;;;4.03;1.67;;;;;;;10.45;73.83;94763.50;5046592;28;20809;-69
2024/02/22 10:24:52;;;;;;;2.17;1.77;;;;;;;10.54;73.47;94748.91;5047008;28;20179;-68
2024/02/22 10:27:19;;;;;;;2.17;1.87;;;;;;;10.54;73.30;94754.16;5047112;28;20418;-68
2024/02/22 10:29:46;;;;;;;6.07;1.80;;;;;;;10.59;73.58;94749.41;5046825;28;20455;-68
2024/02/22 10:32:20;;;;;;;1.90;1.50;;;;;;;10.68;72.95;94732.19;5045875;28;20437;-68
2024/02/22 10:34:50;;;;;;;2.37;1.50;;;;;;;10.68;72.88;94713.84;5048252;28;20492;-69
2024/02/22 10:37:17;;;;;;;1.87;1.50;;;;;;;10.79;73.06;94717.38;5047663;28;20429;-69
2024/02/22 10:39:44;;;;;;;2.30;1.43;;;;;;;10.84;72.38;94714.38;5046683;28;20507;-69
2024/02/22 10:42:12;;;;;;;1.60;1.30;;;;;;;10.87;72.18;94715.97;5047687;28;20459;-69
2024/02/22 10:44:37;;;;;;;3.60;1.43;;;;;;;10.91;71.44;94727.91;5047264;28;20397;-67
2024/02/22 10:47:03;;;;;;;4.00;1.47;;;;;;;10.91;71.58;94730.53;5047020;28;20972;-68
2024/02/22 10:49:31;;;;;;;3.20;1.40;;;;;;;10.96;71.37;94715.28;5047018;28;20206;-68
2024/02/22 10:51:59;;;;;;;3.70;1.27;;;;;;;10.97;72.54;94706.47;5046956;28;20415;-69
2024/02/22 10:54:30;;;;;;;1.97;1.40;;;;;;;10.99;71.44;94702.78;5046727;28;20422;-69
2024/02/22 10:56:58;;;;;;;1.80;1.40;;;;;;;11.09;70.93;94697.72;5048460;28;20431;-68
2024/02/22 10:59:28;;;;;;;1.50;1.10;;;;;;;11.13;70.20;94693.91;5047801;28;20438;-68
2024/02/22 11:01:54;;;;;;;3.43;1.60;;;;;;;11.04;71.42;94683.25;5046890;28;20440;-68
2024/02/22 11:04:21;;;;;;;1.87;1.20;;;;;;;11.05;71.36;94672.63;5048642;28;20409;-68
2024/02/22 11:06:48;;;;;;;3.50;3.20;;;;;;;11.12;70.87;94671.22;5049096;28;20448;-69
2024/02/22 11:09:18;;;;;;;1.23;1.00;;;;;;;11.10;71.12;94667.91;5051882;28;20437;-68
2024/02/22 11:11:46;;;;;;;1.60;1.23;;;;;;;11.04;71.14;94657.84;5048659;28;20492;-69
2024/02/22 11:14:13;;;;;;;3.67;1.53;;;;;;;11.05;71.70;94658.66;5058582;28;20417;-68
2024/02/22 11:16:40;;;;;;;1.47;1.20;;;;;;;11.14;70.67;94644.88;5062863;28;20491;-68
2024/02/22 11:19:08;;;;;;;2.13;1.23;;;;;;;11.18;70.06;94648.94;5064234;28;20421;-69
2024/02/22 11:21:34;;;;;;;1.40;1.00;;;;;;;11.14;71.14;94635.19;5061125;28;20457;-69
2024/02/22 11:24:06;;;;;;;1.37;1.20;;;;;;;11.13;71.42;94628.28;5048716;28;20417;-68
2024/02/22 11:26:32;;;;;;;1.73;1.27;;;;;;;11.25;70.05;94637.03;5047754;28;20175;-68
2024/02/22 11:28:57;;;;;;;3.13;1.33;;;;;;;11.23;71.08;94645.03;5050376;28;20500;-68
2024/02/22 11:31:23;;;;;;;1.70;1.23;;;;;;;11.33;71.31;94633.81;5045998;28;20829;-68
2024/02/22 11:33:57;;;;;;;3.53;2.00;;;;;;;11.37;70.91;94624.78;5046735;28;20194;-69